sensor_id;sensor_type;location;lat;lon;timestamp;temperature;humidity
83146;DHT22;73037;51.110;4.706;2023-12-29T00:00:35;11.30;68.00
83146;DHT22;73037;51.110;4.706;2023-12-29T00:03:01;11.40;67.80
83146;DHT22;73037;51.110;4.706;2023-12-29T00:05:27;11.40;68.10
83146;DHT22;73037;51.110;4.706;2023-12-29T00:07:53;11.40;68.20
83146;DHT22;73037;51.110;4.706;2023-12-29T00:10:18;11.30;68.10
83146;DHT22;73037;51.110;4.706;2023-12-29T00:12:44;11.40;67.90
83146;DHT22;73037;51.110;4.706;2023-12-29T00:15:10;11.30;68.00
83146;DHT22;73037;51.110;4.706;2023-12-29T00:17:36;11.30;68.20
83146;DHT22;73037;51.110;4.706;2023-12-29T00:20:06;11.30;68.10
83146;DHT22;73037;51.110;4.706;2023-12-29T00:22:35;11.30;68.20
83146;DHT22;73037;51.110;4.706;2023-12-29T00:25:01;11.30;68.20
83146;DHT22;73037;51.110;4.706;2023-12-29T00:27:28;11.30;68.10
83146;DHT22;73037;51.110;4.706;2023-12-29T00:29:54;11.30;68.30
83146;DHT22;73037;51.110;4.706;2023-12-29T00:32:20;11.30;68.60
83146;DHT22;73037;51.110;4.706;2023-12-29T00:34:45;11.30;68.60
83146;DHT22;73037;51.110;4.706;2023-12-29T00:37:11;11.30;68.60
83146;DHT22;73037;51.110;4.706;2023-12-29T00:39:37;11.20;70.50
83146;DHT22;73037;51.110;4.706;2023-12-29T00:42:06;11.10;70.70
83146;DHT22;73037;51.110;4.706;2023-12-29T00:44:32;11.10;70.50
83146;DHT22;73037;51.110;4.706;2023-12-29T00:46:58;11.00;70.80
83146;DHT22;73037;51.110;4.706;2023-12-29T00:49:24;11.00;70.50
83146;DHT22;73037;51.110;4.706;2023-12-29T00:51:50;11.00;70.60
83146;DHT22;73037;51.110;4.706;2023-12-29T00:54:16;11.00;70.60
83146;DHT22;73037;51.110;4.706;2023-12-29T00:56:41;11.00;71.00
83146;DHT22;73037;51.110;4.706;2023-12-29T00:59:07;11.00;71.00
83146;DHT22;73037;51.110;4.706;2023-12-29T01:01:34;10.90;71.30
83146;DHT22;73037;51.110;4.706;2023-12-29T01:04:00;10.90;71.70
83146;DHT22;73037;51.110;4.706;2023-12-29T01:06:26;10.80;71.80
83146;DHT22;73037;51.110;4.706;2023-12-29T01:08:52;10.80;71.50
83146;DHT22;73037;51.110;4.706;2023-12-29T01:11:17;10.80;71.20
83146;DHT22;73037;51.110;4.706;2023-12-29T01:13:43;10.90;70.90
83146;DHT22;73037;51.110;4.706;2023-12-29T01:16:08;10.80;70.60
83146;DHT22;73037;51.110;4.706;2023-12-29T01:18:34;10.90;70.70
83146;DHT22;73037;51.110;4.706;2023-12-29T01:21:00;10.90;71.10
83146;DHT22;73037;51.110;4.706;2023-12-29T01:23:25;10.90;70.70
83146;DHT22;73037;51.110;4.706;2023-12-29T01:25:51;10.90;70.50
83146;DHT22;73037;51.110;4.706;2023-12-29T01:28:17;10.90;70.50
83146;DHT22;73037;51.110;4.706;2023-12-29T01:30:42;10.90;70.50
83146;DHT22;73037;51.110;4.706;2023-12-29T01:33:08;10.90;70.10
83146;DHT22;73037;51.110;4.706;2023-12-29T01:35:34;11.00;70.40
83146;DHT22;73037;51.110;4.706;2023-12-29T01:37:59;11.00;70.20
83146;DHT22;73037;51.110;4.706;2023-12-29T01:40:26;11.10;69.70
83146;DHT22;73037;51.110;4.706;2023-12-29T01:42:52;11.10;70.10
83146;DHT22;73037;51.110;4.706;2023-12-29T01:45:26;11.10;70.00
83146;DHT22;73037;51.110;4.706;2023-12-29T01:47:52;11.10;70.00
83146;DHT22;73037;51.110;4.706;2023-12-29T01:50:19;11.10;70.20
83146;DHT22;73037;51.110;4.706;2023-12-29T01:52:48;11.10;69.70
83146;DHT22;73037;51.110;4.706;2023-12-29T01:55:17;11.10;70.00
83146;DHT22;73037;51.110;4.706;2023-12-29T01:57:43;11.10;70.20
83146;DHT22;73037;51.110;4.706;2023-12-29T02:00:11;11.10;70.10
83146;DHT22;73037;51.110;4.706;2023-12-29T02:02:37;11.10;70.10
83146;DHT22;73037;51.110;4.706;2023-12-29T02:05:03;11.10;70.20
83146;DHT22;73037;51.110;4.706;2023-12-29T02:07:28;11.10;69.70
83146;DHT22;73037;51.110;4.706;2023-12-29T02:09:57;11.10;70.00
83146;DHT22;73037;51.110;4.706;2023-12-29T02:12:23;11.10;69.90
83146;DHT22;73037;51.110;4.706;2023-12-29T02:14:49;11.10;69.70
83146;DHT22;73037;51.110;4.706;2023-12-29T02:17:16;11.10;69.70
83146;DHT22;73037;51.110;4.706;2023-12-29T02:19:45;11.10;69.90
83146;DHT22;73037;51.110;4.706;2023-12-29T02:22:12;11.10;69.70
83146;DHT22;73037;51.110;4.706;2023-12-29T02:24:38;11.10;69.60
83146;DHT22;73037;51.110;4.706;2023-12-29T02:27:46;11.10;70.10
83146;DHT22;73037;51.110;4.706;2023-12-29T02:30:29;11.10;69.90
83146;DHT22;73037;51.110;4.706;2023-12-29T02:32:59;11.10;69.80
83146;DHT22;73037;51.110;4.706;2023-12-29T02:35:28;11.10;70.20
83146;DHT22;73037;51.110;4.706;2023-12-29T02:37:55;11.10;69.90
83146;DHT22;73037;51.110;4.706;2023-12-29T02:40:21;11.10;70.20
83146;DHT22;73037;51.110;4.706;2023-12-29T02:42:48;11.10;70.00
83146;DHT22;73037;51.110;4.706;2023-12-29T02:45:17;11.10;69.90
83146;DHT22;73037;51.110;4.706;2023-12-29T02:47:44;11.10;69.70
83146;DHT22;73037;51.110;4.706;2023-12-29T02:50:10;11.10;69.40
83146;DHT22;73037;51.110;4.706;2023-12-29T02:52:36;11.10;69.60
83146;DHT22;73037;51.110;4.706;2023-12-29T02:55:02;11.10;69.90
83146;DHT22;73037;51.110;4.706;2023-12-29T02:57:28;11.10;69.60
83146;DHT22;73037;51.110;4.706;2023-12-29T02:59:55;11.10;69.80
83146;DHT22;73037;51.110;4.706;2023-12-29T03:02:21;11.10;69.80
83146;DHT22;73037;51.110;4.706;2023-12-29T03:04:47;11.10;69.80
83146;DHT22;73037;51.110;4.706;2023-12-29T03:07:13;11.00;70.00
83146;DHT22;73037;51.110;4.706;2023-12-29T03:09:38;11.00;70.10
83146;DHT22;73037;51.110;4.706;2023-12-29T03:12:05;11.00;70.30
83146;DHT22;73037;51.110;4.706;2023-12-29T03:14:31;11.00;70.10
83146;DHT22;73037;51.110;4.706;2023-12-29T03:16:57;10.90;70.40
83146;DHT22;73037;51.110;4.706;2023-12-29T03:19:22;10.90;70.40
83146;DHT22;73037;51.110;4.706;2023-12-29T03:21:48;10.80;70.30
83146;DHT22;73037;51.110;4.706;2023-12-29T03:24:14;10.80;70.40
83146;DHT22;73037;51.110;4.706;2023-12-29T03:26:40;10.80;70.50
83146;DHT22;73037;51.110;4.706;2023-12-29T03:29:06;10.80;70.40
83146;DHT22;73037;51.110;4.706;2023-12-29T03:31:32;10.80;70.30
83146;DHT22;73037;51.110;4.706;2023-12-29T03:33:58;10.80;70.10
83146;DHT22;73037;51.110;4.706;2023-12-29T03:36:23;10.80;70.10
83146;DHT22;73037;51.110;4.706;2023-12-29T03:38:49;10.70;70.20
83146;DHT22;73037;51.110;4.706;2023-12-29T03:41:15;10.70;70.20
83146;DHT22;73037;51.110;4.706;2023-12-29T03:43:40;10.70;70.40
83146;DHT22;73037;51.110;4.706;2023-12-29T03:46:18;10.70;70.30
83146;DHT22;73037;51.110;4.706;2023-12-29T03:48:44;10.70;70.50
83146;DHT22;73037;51.110;4.706;2023-12-29T03:51:10;10.70;70.40
83146;DHT22;73037;51.110;4.706;2023-12-29T03:53:35;10.60;70.50
83146;DHT22;73037;51.110;4.706;2023-12-29T03:56:06;10.60;70.40
83146;DHT22;73037;51.110;4.706;2023-12-29T03:58:31;10.60;70.40
83146;DHT22;73037;51.110;4.706;2023-12-29T04:00:57;10.60;70.50
83146;DHT22;73037;51.110;4.706;2023-12-29T04:03:23;10.50;70.40
83146;DHT22;73037;51.110;4.706;2023-12-29T04:05:49;10.50;70.10
83146;DHT22;73037;51.110;4.706;2023-12-29T04:08:14;10.50;70.50
83146;DHT22;73037;51.110;4.706;2023-12-29T04:10:40;10.60;70.50
83146;DHT22;73037;51.110;4.706;2023-12-29T04:13:06;10.50;70.20
83146;DHT22;73037;51.110;4.706;2023-12-29T04:15:32;10.60;70.50
83146;DHT22;73037;51.110;4.706;2023-12-29T04:17:57;10.60;70.40
83146;DHT22;73037;51.110;4.706;2023-12-29T04:20:23;10.50;70.50
83146;DHT22;73037;51.110;4.706;2023-12-29T04:22:50;10.50;70.70
83146;DHT22;73037;51.110;4.706;2023-12-29T04:25:15;10.50;70.60
83146;DHT22;73037;51.110;4.706;2023-12-29T04:27:41;10.50;70.70
83146;DHT22;73037;51.110;4.706;2023-12-29T04:30:07;10.60;70.50
83146;DHT22;73037;51.110;4.706;2023-12-29T04:32:33;10.60;70.90
83146;DHT22;73037;51.110;4.706;2023-12-29T04:34:58;10.60;70.90
83146;DHT22;73037;51.110;4.706;2023-12-29T04:37:24;10.50;71.00
83146;DHT22;73037;51.110;4.706;2023-12-29T04:39:50;10.50;71.00
83146;DHT22;73037;51.110;4.706;2023-12-29T04:42:15;10.50;71.00
83146;DHT22;73037;51.110;4.706;2023-12-29T04:44:43;10.50;71.00
83146;DHT22;73037;51.110;4.706;2023-12-29T04:47:09;10.50;71.10
83146;DHT22;73037;51.110;4.706;2023-12-29T04:49:34;10.50;71.00
83146;DHT22;73037;51.110;4.706;2023-12-29T04:52:00;10.50;71.10
83146;DHT22;73037;51.110;4.706;2023-12-29T04:54:27;10.50;71.20
83146;DHT22;73037;51.110;4.706;2023-12-29T04:56:52;10.50;71.30
83146;DHT22;73037;51.110;4.706;2023-12-29T04:59:18;10.50;71.40
83146;DHT22;73037;51.110;4.706;2023-12-29T05:01:44;10.50;71.20
83146;DHT22;73037;51.110;4.706;2023-12-29T05:04:10;10.50;71.20
83146;DHT22;73037;51.110;4.706;2023-12-29T05:06:35;10.50;71.20
83146;DHT22;73037;51.110;4.706;2023-12-29T05:09:01;10.50;71.30
83146;DHT22;73037;51.110;4.706;2023-12-29T05:11:27;10.50;71.20
83146;DHT22;73037;51.110;4.706;2023-12-29T05:13:53;10.50;71.50
83146;DHT22;73037;51.110;4.706;2023-12-29T05:16:19;10.50;71.50
83146;DHT22;73037;51.110;4.706;2023-12-29T05:18:44;10.50;71.40
83146;DHT22;73037;51.110;4.706;2023-12-29T05:21:17;10.60;71.30
83146;DHT22;73037;51.110;4.706;2023-12-29T05:23:44;10.60;71.30
83146;DHT22;73037;51.110;4.706;2023-12-29T05:26:11;10.60;71.40
83146;DHT22;73037;51.110;4.706;2023-12-29T05:28:36;10.70;71.50
83146;DHT22;73037;51.110;4.706;2023-12-29T05:31:02;10.70;71.50
83146;DHT22;73037;51.110;4.706;2023-12-29T05:33:31;10.60;71.40
83146;DHT22;73037;51.110;4.706;2023-12-29T05:35:58;10.60;71.50
83146;DHT22;73037;51.110;4.706;2023-12-29T05:38:24;10.60;71.60
83146;DHT22;73037;51.110;4.706;2023-12-29T05:40:50;10.60;71.70
83146;DHT22;73037;51.110;4.706;2023-12-29T05:43:17;10.60;71.80
83146;DHT22;73037;51.110;4.706;2023-12-29T05:45:43;10.60;71.70
83146;DHT22;73037;51.110;4.706;2023-12-29T05:48:08;10.60;71.80
83146;DHT22;73037;51.110;4.706;2023-12-29T05:50:35;10.60;71.70
83146;DHT22;73037;51.110;4.706;2023-12-29T05:53:01;10.60;71.90
83146;DHT22;73037;51.110;4.706;2023-12-29T05:55:26;10.60;71.90
83146;DHT22;73037;51.110;4.706;2023-12-29T05:57:52;10.70;71.90
83146;DHT22;73037;51.110;4.706;2023-12-29T06:00:18;10.70;72.20
83146;DHT22;73037;51.110;4.706;2023-12-29T06:02:43;10.70;72.40
83146;DHT22;73037;51.110;4.706;2023-12-29T06:05:12;10.60;73.90
83146;DHT22;73037;51.110;4.706;2023-12-29T06:07:38;10.50;74.80
83146;DHT22;73037;51.110;4.706;2023-12-29T06:10:05;10.40;75.30
83146;DHT22;73037;51.110;4.706;2023-12-29T06:12:30;10.30;75.70
83146;DHT22;73037;51.110;4.706;2023-12-29T06:14:56;10.20;75.80
83146;DHT22;73037;51.110;4.706;2023-12-29T06:17:22;10.30;76.20
83146;DHT22;73037;51.110;4.706;2023-12-29T06:19:47;10.20;76.10
83146;DHT22;73037;51.110;4.706;2023-12-29T06:22:13;10.20;76.10
83146;DHT22;73037;51.110;4.706;2023-12-29T06:24:43;10.20;76.30
83146;DHT22;73037;51.110;4.706;2023-12-29T06:27:09;10.20;76.30
83146;DHT22;73037;51.110;4.706;2023-12-29T06:29:35;10.10;76.50
83146;DHT22;73037;51.110;4.706;2023-12-29T06:32:02;10.10;76.70
83146;DHT22;73037;51.110;4.706;2023-12-29T06:34:27;10.10;76.60
83146;DHT22;73037;51.110;4.706;2023-12-29T06:36:53;10.10;76.80
83146;DHT22;73037;51.110;4.706;2023-12-29T06:39:19;10.00;76.80
83146;DHT22;73037;51.110;4.706;2023-12-29T06:41:44;10.00;77.30
83146;DHT22;73037;51.110;4.706;2023-12-29T06:44:10;10.00;77.20
83146;DHT22;73037;51.110;4.706;2023-12-29T06:46:39;10.00;77.10
83146;DHT22;73037;51.110;4.706;2023-12-29T06:49:07;10.00;77.90
83146;DHT22;73037;51.110;4.706;2023-12-29T06:51:33;10.00;77.60
83146;DHT22;73037;51.110;4.706;2023-12-29T06:54:00;10.00;78.00
83146;DHT22;73037;51.110;4.706;2023-12-29T06:56:25;10.00;77.60
83146;DHT22;73037;51.110;4.706;2023-12-29T06:58:51;10.00;77.70
83146;DHT22;73037;51.110;4.706;2023-12-29T07:01:17;10.00;77.30
83146;DHT22;73037;51.110;4.706;2023-12-29T07:03:43;10.00;77.70
83146;DHT22;73037;51.110;4.706;2023-12-29T07:06:10;10.00;77.50
83146;DHT22;73037;51.110;4.706;2023-12-29T07:08:36;10.00;77.70
83146;DHT22;73037;51.110;4.706;2023-12-29T07:11:02;10.00;78.00
83146;DHT22;73037;51.110;4.706;2023-12-29T07:13:28;10.00;77.70
83146;DHT22;73037;51.110;4.706;2023-12-29T07:15:54;10.00;78.00
83146;DHT22;73037;51.110;4.706;2023-12-29T07:18:20;10.00;78.00
83146;DHT22;73037;51.110;4.706;2023-12-29T07:20:46;10.00;78.00
83146;DHT22;73037;51.110;4.706;2023-12-29T07:23:11;10.00;77.90
83146;DHT22;73037;51.110;4.706;2023-12-29T07:25:37;10.00;77.80
83146;DHT22;73037;51.110;4.706;2023-12-29T07:28:03;10.00;77.60
83146;DHT22;73037;51.110;4.706;2023-12-29T07:30:28;10.00;77.50
83146;DHT22;73037;51.110;4.706;2023-12-29T07:32:54;10.10;77.60
83146;DHT22;73037;51.110;4.706;2023-12-29T07:35:20;10.10;77.60
83146;DHT22;73037;51.110;4.706;2023-12-29T07:37:46;10.10;77.50
83146;DHT22;73037;51.110;4.706;2023-12-29T07:40:13;10.10;77.40
83146;DHT22;73037;51.110;4.706;2023-12-29T07:42:42;10.10;77.30
83146;DHT22;73037;51.110;4.706;2023-12-29T07:45:10;10.20;77.50
83146;DHT22;73037;51.110;4.706;2023-12-29T07:47:35;10.20;77.20
83146;DHT22;73037;51.110;4.706;2023-12-29T07:50:01;10.20;77.50
83146;DHT22;73037;51.110;4.706;2023-12-29T07:52:27;10.20;77.80
83146;DHT22;73037;51.110;4.706;2023-12-29T07:54:53;10.10;78.20
83146;DHT22;73037;51.110;4.706;2023-12-29T07:57:18;10.10;78.40
83146;DHT22;73037;51.110;4.706;2023-12-29T07:59:44;10.10;79.10
83146;DHT22;73037;51.110;4.706;2023-12-29T08:02:10;10.00;79.50
83146;DHT22;73037;51.110;4.706;2023-12-29T08:04:36;10.00;79.20
83146;DHT22;73037;51.110;4.706;2023-12-29T08:07:02;10.00;79.40
83146;DHT22;73037;51.110;4.706;2023-12-29T08:09:28;10.00;80.00
83146;DHT22;73037;51.110;4.706;2023-12-29T08:11:54;10.00;79.70
83146;DHT22;73037;51.110;4.706;2023-12-29T08:14:19;9.90;80.40
83146;DHT22;73037;51.110;4.706;2023-12-29T08:16:45;9.80;81.10
83146;DHT22;73037;51.110;4.706;2023-12-29T08:19:11;9.80;81.00
83146;DHT22;73037;51.110;4.706;2023-12-29T08:21:36;9.90;81.80
83146;DHT22;73037;51.110;4.706;2023-12-29T08:24:02;9.90;81.80
83146;DHT22;73037;51.110;4.706;2023-12-29T08:26:28;9.90;81.80
83146;DHT22;73037;51.110;4.706;2023-12-29T08:28:54;9.90;81.60
83146;DHT22;73037;51.110;4.706;2023-12-29T08:31:20;9.90;81.70
83146;DHT22;73037;51.110;4.706;2023-12-29T08:33:48;9.90;81.50
83146;DHT22;73037;51.110;4.706;2023-12-29T08:36:14;9.90;81.80
83146;DHT22;73037;51.110;4.706;2023-12-29T08:38:43;9.90;82.60
83146;DHT22;73037;51.110;4.706;2023-12-29T08:41:08;10.00;82.60
83146;DHT22;73037;51.110;4.706;2023-12-29T08:43:34;10.00;82.90
83146;DHT22;73037;51.110;4.706;2023-12-29T08:46:01;10.00;82.80
83146;DHT22;73037;51.110;4.706;2023-12-29T08:48:27;9.80;83.00
83146;DHT22;73037;51.110;4.706;2023-12-29T08:50:53;9.90;83.10
83146;DHT22;73037;51.110;4.706;2023-12-29T08:53:18;9.90;83.40
83146;DHT22;73037;51.110;4.706;2023-12-29T08:55:44;9.90;83.50
83146;DHT22;73037;51.110;4.706;2023-12-29T08:58:10;9.80;83.40
83146;DHT22;73037;51.110;4.706;2023-12-29T09:00:36;9.80;84.00
83146;DHT22;73037;51.110;4.706;2023-12-29T09:03:01;9.70;84.00
83146;DHT22;73037;51.110;4.706;2023-12-29T09:05:28;9.80;84.20
83146;DHT22;73037;51.110;4.706;2023-12-29T09:07:54;9.70;84.00
83146;DHT22;73037;51.110;4.706;2023-12-29T09:10:19;9.70;83.00
83146;DHT22;73037;51.110;4.706;2023-12-29T09:12:46;9.60;83.00
83146;DHT22;73037;51.110;4.706;2023-12-29T09:15:12;9.60;83.70
83146;DHT22;73037;51.110;4.706;2023-12-29T09:17:38;9.70;83.50
83146;DHT22;73037;51.110;4.706;2023-12-29T09:20:03;9.80;83.70
83146;DHT22;73037;51.110;4.706;2023-12-29T09:22:29;9.80;83.60
83146;DHT22;73037;51.110;4.706;2023-12-29T09:24:55;9.90;83.00
83146;DHT22;73037;51.110;4.706;2023-12-29T09:27:21;9.90;82.70
83146;DHT22;73037;51.110;4.706;2023-12-29T09:29:47;10.00;83.00
83146;DHT22;73037;51.110;4.706;2023-12-29T09:32:12;9.90;82.20
83146;DHT22;73037;51.110;4.706;2023-12-29T09:34:38;9.90;82.30
83146;DHT22;73037;51.110;4.706;2023-12-29T09:37:04;10.00;82.20
83146;DHT22;73037;51.110;4.706;2023-12-29T09:39:29;10.00;82.70
83146;DHT22;73037;51.110;4.706;2023-12-29T09:41:58;10.00;82.70
83146;DHT22;73037;51.110;4.706;2023-12-29T09:44:29;10.00;82.50
83146;DHT22;73037;51.110;4.706;2023-12-29T09:47:00;10.10;82.50
83146;DHT22;73037;51.110;4.706;2023-12-29T09:49:27;10.20;82.60
83146;DHT22;73037;51.110;4.706;2023-12-29T09:51:57;10.30;81.50
83146;DHT22;73037;51.110;4.706;2023-12-29T09:54:24;10.30;82.00
83146;DHT22;73037;51.110;4.706;2023-12-29T09:56:51;10.40;82.20
83146;DHT22;73037;51.110;4.706;2023-12-29T09:59:17;10.40;82.30
83146;DHT22;73037;51.110;4.706;2023-12-29T10:01:45;10.50;81.80
83146;DHT22;73037;51.110;4.706;2023-12-29T10:04:11;10.50;81.80
83146;DHT22;73037;51.110;4.706;2023-12-29T10:06:40;10.50;81.60
83146;DHT22;73037;51.110;4.706;2023-12-29T10:09:11;10.60;81.50
83146;DHT22;73037;51.110;4.706;2023-12-29T10:11:38;10.60;81.40
83146;DHT22;73037;51.110;4.706;2023-12-29T10:14:17;10.60;80.90
83146;DHT22;73037;51.110;4.706;2023-12-29T10:16:53;10.50;80.60
83146;DHT22;73037;51.110;4.706;2023-12-29T10:22:06;10.50;80.70
83146;DHT22;73037;51.110;4.706;2023-12-29T10:24:34;10.50;81.30
83146;DHT22;73037;51.110;4.706;2023-12-29T10:27:01;10.40;81.40
83146;DHT22;73037;51.110;4.706;2023-12-29T10:29:27;10.40;81.50
83146;DHT22;73037;51.110;4.706;2023-12-29T10:31:53;10.40;80.60
83146;DHT22;73037;51.110;4.706;2023-12-29T10:34:22;10.40;80.90
83146;DHT22;73037;51.110;4.706;2023-12-29T10:36:57;10.40;81.20
83146;DHT22;73037;51.110;4.706;2023-12-29T10:39:24;10.40;81.50
83146;DHT22;73037;51.110;4.706;2023-12-29T10:42:02;10.40;81.20
83146;DHT22;73037;51.110;4.706;2023-12-29T10:44:28;10.30;81.30
83146;DHT22;73037;51.110;4.706;2023-12-29T10:46:53;10.30;81.60
83146;DHT22;73037;51.110;4.706;2023-12-29T10:49:19;10.40;82.00
83146;DHT22;73037;51.110;4.706;2023-12-29T10:51:44;10.30;81.00
83146;DHT22;73037;51.110;4.706;2023-12-29T10:54:21;10.30;82.00
83146;DHT22;73037;51.110;4.706;2023-12-29T10:57:00;10.30;81.90
83146;DHT22;73037;51.110;4.706;2023-12-29T10:59:28;10.40;82.10
83146;DHT22;73037;51.110;4.706;2023-12-29T11:01:54;10.40;82.40
83146;DHT22;73037;51.110;4.706;2023-12-29T11:04:22;10.40;82.20
83146;DHT22;73037;51.110;4.706;2023-12-29T11:06:48;10.50;82.70
83146;DHT22;73037;51.110;4.706;2023-12-29T11:09:32;10.50;82.30
83146;DHT22;73037;51.110;4.706;2023-12-29T11:12:00;10.60;82.20
83146;DHT22;73037;51.110;4.706;2023-12-29T11:14:26;10.70;82.70
83146;DHT22;73037;51.110;4.706;2023-12-29T11:16:54;10.70;81.90
83146;DHT22;73037;51.110;4.706;2023-12-29T11:19:21;10.80;81.90
83146;DHT22;73037;51.110;4.706;2023-12-29T11:21:56;10.80;82.00
83146;DHT22;73037;51.110;4.706;2023-12-29T11:24:22;10.90;81.20
83146;DHT22;73037;51.110;4.706;2023-12-29T11:26:49;11.00;82.00
83146;DHT22;73037;51.110;4.706;2023-12-29T11:29:16;11.00;81.60
83146;DHT22;73037;51.110;4.706;2023-12-29T11:31:43;11.00;81.20
83146;DHT22;73037;51.110;4.706;2023-12-29T11:36:46;10.90;81.00
83146;DHT22;73037;51.110;4.706;2023-12-29T11:39:38;10.80;80.60
83146;DHT22;73037;51.110;4.706;2023-12-29T11:42:21;10.80;80.90
83146;DHT22;73037;51.110;4.706;2023-12-29T11:44:48;10.90;81.30
83146;DHT22;73037;51.110;4.706;2023-12-29T11:50:02;11.00;80.90
83146;DHT22;73037;51.110;4.706;2023-12-29T11:52:36;11.00;80.30
83146;DHT22;73037;51.110;4.706;2023-12-29T11:55:14;11.00;80.40
83146;DHT22;73037;51.110;4.706;2023-12-29T11:57:40;11.10;80.60
83146;DHT22;73037;51.110;4.706;2023-12-29T12:00:07;11.10;79.80
83146;DHT22;73037;51.110;4.706;2023-12-29T12:02:33;11.10;80.60
83146;DHT22;73037;51.110;4.706;2023-12-29T12:04:59;11.10;80.40
83146;DHT22;73037;51.110;4.706;2023-12-29T12:09:50;11.10;80.70
83146;DHT22;73037;51.110;4.706;2023-12-29T12:12:39;11.10;80.00
83146;DHT22;73037;51.110;4.706;2023-12-29T12:17:58;11.10;81.20
83146;DHT22;73037;51.110;4.706;2023-12-29T12:20:24;11.20;80.70
83146;DHT22;73037;51.110;4.706;2023-12-29T12:23:22;11.10;80.80
83146;DHT22;73037;51.110;4.706;2023-12-29T12:25:47;11.10;80.00
83146;DHT22;73037;51.110;4.706;2023-12-29T12:28:15;11.10;80.50
83146;DHT22;73037;51.110;4.706;2023-12-29T12:30:41;11.10;80.90
83146;DHT22;73037;51.110;4.706;2023-12-29T12:33:07;11.10;81.20
83146;DHT22;73037;51.110;4.706;2023-12-29T12:35:36;11.10;80.40
83146;DHT22;73037;51.110;4.706;2023-12-29T12:38:12;11.00;80.70
83146;DHT22;73037;51.110;4.706;2023-12-29T12:40:38;11.00;80.90
83146;DHT22;73037;51.110;4.706;2023-12-29T12:43:05;11.00;80.70
83146;DHT22;73037;51.110;4.706;2023-12-29T12:45:41;10.90;80.10
83146;DHT22;73037;51.110;4.706;2023-12-29T12:48:20;10.90;80.90
83146;DHT22;73037;51.110;4.706;2023-12-29T12:50:46;10.90;81.50
83146;DHT22;73037;51.110;4.706;2023-12-29T12:53:13;10.90;80.70
83146;DHT22;73037;51.110;4.706;2023-12-29T12:55:50;10.90;80.70
83146;DHT22;73037;51.110;4.706;2023-12-29T12:58:18;10.90;81.20
83146;DHT22;73037;51.110;4.706;2023-12-29T13:00:45;10.90;81.30
83146;DHT22;73037;51.110;4.706;2023-12-29T13:03:11;10.90;80.50
83146;DHT22;73037;51.110;4.706;2023-12-29T13:05:37;10.90;81.00
83146;DHT22;73037;51.110;4.706;2023-12-29T13:08:04;10.90;80.70
83146;DHT22;73037;51.110;4.706;2023-12-29T13:10:31;10.90;81.20
83146;DHT22;73037;51.110;4.706;2023-12-29T13:12:57;11.00;81.10
83146;DHT22;73037;51.110;4.706;2023-12-29T13:15:23;11.00;80.70
83146;DHT22;73037;51.110;4.706;2023-12-29T13:17:53;11.00;80.90
83146;DHT22;73037;51.110;4.706;2023-12-29T13:20:18;11.00;81.20
83146;DHT22;73037;51.110;4.706;2023-12-29T13:22:50;11.00;81.00
83146;DHT22;73037;51.110;4.706;2023-12-29T13:25:25;11.00;80.50
83146;DHT22;73037;51.110;4.706;2023-12-29T13:27:53;11.00;80.00
83146;DHT22;73037;51.110;4.706;2023-12-29T13:30:19;11.00;80.90
83146;DHT22;73037;51.110;4.706;2023-12-29T13:32:47;11.00;80.40
83146;DHT22;73037;51.110;4.706;2023-12-29T13:35:30;11.00;80.70
83146;DHT22;73037;51.110;4.706;2023-12-29T13:38:15;11.00;80.60
83146;DHT22;73037;51.110;4.706;2023-12-29T13:40:56;11.00;79.40
83146;DHT22;73037;51.110;4.706;2023-12-29T13:43:24;10.90;80.30
83146;DHT22;73037;51.110;4.706;2023-12-29T13:45:51;10.90;80.70
83146;DHT22;73037;51.110;4.706;2023-12-29T13:48:17;10.80;79.90
83146;DHT22;73037;51.110;4.706;2023-12-29T13:50:47;10.80;81.10
83146;DHT22;73037;51.110;4.706;2023-12-29T13:53:19;10.90;81.20
83146;DHT22;73037;51.110;4.706;2023-12-29T13:55:45;10.90;81.50
83146;DHT22;73037;51.110;4.706;2023-12-29T13:58:11;10.90;81.00
83146;DHT22;73037;51.110;4.706;2023-12-29T14:00:39;10.90;81.30
83146;DHT22;73037;51.110;4.706;2023-12-29T14:03:31;10.90;81.30
83146;DHT22;73037;51.110;4.706;2023-12-29T14:06:03;10.90;81.30
83146;DHT22;73037;51.110;4.706;2023-12-29T14:08:39;10.90;81.10
83146;DHT22;73037;51.110;4.706;2023-12-29T14:11:09;10.90;81.10
83146;DHT22;73037;51.110;4.706;2023-12-29T14:13:35;10.90;81.60
83146;DHT22;73037;51.110;4.706;2023-12-29T14:16:01;10.90;81.30
83146;DHT22;73037;51.110;4.706;2023-12-29T14:20:58;10.80;81.20
83146;DHT22;73037;51.110;4.706;2023-12-29T14:23:25;10.80;81.00
83146;DHT22;73037;51.110;4.706;2023-12-29T14:25:50;10.80;81.30
83146;DHT22;73037;51.110;4.706;2023-12-29T14:28:19;10.80;81.00
83146;DHT22;73037;51.110;4.706;2023-12-29T14:30:45;10.80;81.00
83146;DHT22;73037;51.110;4.706;2023-12-29T14:33:11;10.80;81.20
83146;DHT22;73037;51.110;4.706;2023-12-29T14:35:37;10.80;80.70
83146;DHT22;73037;51.110;4.706;2023-12-29T14:38:03;10.90;80.90
83146;DHT22;73037;51.110;4.706;2023-12-29T14:40:29;10.80;81.30
83146;DHT22;73037;51.110;4.706;2023-12-29T14:42:55;10.80;81.70
83146;DHT22;73037;51.110;4.706;2023-12-29T14:45:21;10.80;81.50
83146;DHT22;73037;51.110;4.706;2023-12-29T14:47:47;10.80;82.10
83146;DHT22;73037;51.110;4.706;2023-12-29T14:50:14;10.70;81.60
83146;DHT22;73037;51.110;4.706;2023-12-29T14:52:40;10.70;81.80
83146;DHT22;73037;51.110;4.706;2023-12-29T14:55:06;10.60;81.80
83146;DHT22;73037;51.110;4.706;2023-12-29T14:57:32;10.60;82.30
83146;DHT22;73037;51.110;4.706;2023-12-29T14:59:57;10.60;83.10
83146;DHT22;73037;51.110;4.706;2023-12-29T15:02:23;10.60;82.70
83146;DHT22;73037;51.110;4.706;2023-12-29T15:04:49;10.50;83.20
83146;DHT22;73037;51.110;4.706;2023-12-29T15:07:15;10.60;83.30
83146;DHT22;73037;51.110;4.706;2023-12-29T15:09:41;10.50;83.20
83146;DHT22;73037;51.110;4.706;2023-12-29T15:12:07;10.50;83.10
83146;DHT22;73037;51.110;4.706;2023-12-29T15:14:33;10.50;83.50
83146;DHT22;73037;51.110;4.706;2023-12-29T15:16:58;10.60;83.70
83146;DHT22;73037;51.110;4.706;2023-12-29T15:19:24;10.60;83.30
83146;DHT22;73037;51.110;4.706;2023-12-29T15:21:50;10.60;83.40
83146;DHT22;73037;51.110;4.706;2023-12-29T15:24:19;10.50;83.20
83146;DHT22;73037;51.110;4.706;2023-12-29T15:26:45;10.50;83.10
83146;DHT22;73037;51.110;4.706;2023-12-29T15:29:11;10.50;82.80
83146;DHT22;73037;51.110;4.706;2023-12-29T15:31:37;10.40;83.20
83146;DHT22;73037;51.110;4.706;2023-12-29T15:34:02;10.30;83.00
83146;DHT22;73037;51.110;4.706;2023-12-29T15:36:29;10.30;83.20
83146;DHT22;73037;51.110;4.706;2023-12-29T15:38:54;10.30;83.30
83146;DHT22;73037;51.110;4.706;2023-12-29T15:41:20;10.30;83.20
83146;DHT22;73037;51.110;4.706;2023-12-29T15:43:46;10.30;83.30
83146;DHT22;73037;51.110;4.706;2023-12-29T15:46:13;10.40;83.00
83146;DHT22;73037;51.110;4.706;2023-12-29T15:48:39;10.30;83.00